Aérodrome :
LOGIN :

S'inscrire | Disclaimer

   EN    FR    IT 

 










Légende :    VFR   VFR Marginal   IFR   IFR Intensif   IFR Très Intensif
Visi : 
Plafond : 
>= 8 km
>= 3000ft
5 à 8 km
1000 à 3000 ft
1500m à 5 km
500 à 1000 ft
800 à 1500m
200 à 500 ft
< 800m
< 200 ft
Symboles :   Orages  Brouillard  Fortes neiges  Fortes précipitations  Vent > 20 kt
SIGMETs :   Divers  Orages  Givrage  Turbulence  Onde Orograph.  Cendres Volcan.






- Altitude de l'aérodrome : 75 ft
- Code IATA : MRH


EGYM - RAF Marham

DERNIER METAR :
  • 241420Z 22023KT 9999 SCT015 OVC020 12/10 Q1000 NOSIG RMK WHT WHT

METARs EXPIRÉS :
  • 241350Z 23024KT 9999 SCT012 BKN018 OVC120 12/10 Q1000 GRN BECMG FEW012 SCT025 RMK GRN BECMG BLU
  • 241320Z 22022KT 9999 SCT012 SCT018 OVC120 11/10 Q1000 BECMG FEW 012 SCT025 RMK GRN BECMG BLU
  • 241250Z 22024KT 9999 SCT009 SCT018 OVC120 11/10 Q1001 BECMG FEW012 SCT025 RMK GRN BECMG BLU
  • 241220Z 22021KT 8000 RA SCT009 OVC014 11/10 Q1002 BECMG 9999 NSW BKN025 RMK GRN BECMG WHT
  • 241150Z 22021KT 7000 RA BKN009 OVC025 10/09 Q1002 NOSIG RMK GRN GRN

TAF TAF EGYM
Valide du 24 à 15h jusqu'au 24 à 18h UTC


241355Z 2415/2418 22020G30KT 9999 BKN030
TEMPO 2415/2418 24025G35KT
PROB40
TEMPO 2415/2416 SCT020



MET'MAP, la Météo Aéronautique d'un coup d'oeil ! - Copyright ORBIFLY Décembre 2007 - Disclaimer

ORBIFLY MET'MAP TEAM :

Programmation & Développement : Alexandra Zaïnal
Sur une idée originale de : Baudouin d'Aumeries
Assistance à la programmation : Marc-Olivier Méhu
Soutien technique & logistique : Manuel Goepfert

Contact : metmap@orbifly.com




SOURCES & CREDITS :

   NOAA